Time;durP1;ratioP1;P1;durP2;ratioP2;P2;SDS_P1;SDS_P2;PMS_P1;PMS_P2;Temp;Humidity;BMP_temperature;BMP_pressure;BME280_temperature;BME280_humidity;BME280_pressure;Samples;Min_cycle;Max_cycle;Signal;HPM_P1;HPM_P2
2023/04/16 00:01:27;;;;;;;;;13.00;7.00;;;;;10.15;55.57;102042.81;5017540;28;45331;-43
2023/04/16 00:03:54;;;;;;;;;10.00;8.00;;;;;10.13;55.35;102052.75;5016975;28;45262;-43
2023/04/16 00:06:20;;;;;;;;;12.00;9.00;;;;;10.11;55.34;102045.81;5017666;28;45563;-43
2023/04/16 00:08:45;;;;;;;;;16.67;10.67;;;;;10.09;55.61;102053.06;5017254;28;45968;-43
2023/04/16 00:11:10;;;;;;;;;10.00;7.33;;;;;10.07;55.90;102055.84;5017048;28;45386;-41
2023/04/16 00:13:38;;;;;;;;;10.33;5.67;;;;;10.04;55.54;102049.91;5015812;28;45370;-48
2023/04/16 00:16:04;;;;;;;;;13.67;8.00;;;;;10.02;55.75;102052.66;5017354;28;45199;-46
2023/04/16 00:18:30;;;;;;;;;10.67;6.00;;;;;10.00;55.57;102047.47;5017148;28;46011;-41
2023/04/16 00:20:56;;;;;;;;;7.00;5.67;;;;;9.97;55.89;102058.31;5017157;28;45441;-41
2023/04/16 00:23:24;;;;;;;;;11.00;6.67;;;;;9.97;55.59;102060.97;5016869;28;45617;-44
2023/04/16 00:25:50;;;;;;;;;9.00;6.00;;;;;9.96;56.24;102061.09;5017295;28;45430;-43
2023/04/16 00:28:15;;;;;;;;;9.00;8.00;;;;;9.93;56.30;102056.84;5016786;28;45989;-42
2023/04/16 00:30:41;;;;;;;;;7.33;7.33;;;;;9.94;56.39;102063.00;5017056;28;45442;-42
2023/04/16 00:33:08;;;;;;;;;13.00;10.00;;;;;9.90;56.67;102050.88;5017026;28;45424;-43
2023/04/16 00:35:33;;;;;;;;;9.00;6.00;;;;;9.91;56.68;102060.59;5017222;28;45451;-41
2023/04/16 00:37:59;;;;;;;;;10.00;6.00;;;;;9.89;56.61;102057.16;5016622;28;47311;-44
2023/04/16 00:40:32;;;;;;;;;9.67;6.67;;;;;9.86;56.82;102060.03;5016860;28;45229;-43
2023/04/16 00:42:58;;;;;;;;;14.33;6.67;;;;;9.84;56.78;102054.00;5016650;28;45355;-42
2023/04/16 00:45:23;;;;;;;;;12.00;7.33;;;;;9.83;56.79;102062.94;5016803;28;45662;-43
2023/04/16 00:47:49;;;;;;;;;12.33;6.33;;;;;9.79;57.36;102062.31;5016764;28;46917;-41
2023/04/16 00:50:14;;;;;;;;;6.00;6.00;;;;;9.79;56.79;102056.97;5016715;28;45404;-41
2023/04/16 00:52:39;;;;;;;;;9.67;6.67;;;;;9.77;56.90;102058.88;5016835;28;45250;-43
2023/04/16 00:55:06;;;;;;;;;7.00;6.67;;;;;9.75;56.84;102055.50;5016775;28;45449;-43
2023/04/16 00:57:32;;;;;;;;;10.00;7.00;;;;;9.73;57.07;102055.63;5016418;28;47186;-43
2023/04/16 00:59:57;;;;;;;;;8.33;6.33;;;;;9.72;57.29;102053.91;5016486;28;45327;-44
2023/04/16 01:02:23;;;;;;;;;10.00;8.00;;;;;9.70;57.53;102053.19;5016717;28;45265;-42
2023/04/16 01:04:49;;;;;;;;;14.00;7.00;;;;;9.69;57.68;102054.16;5016694;28;45588;-43
2023/04/16 01:07:14;;;;;;;;;3.67;3.67;;;;;9.66;58.31;102043.72;5016551;28;45974;-43
2023/04/16 01:09:40;;;;;;;;;8.50;6.00;;;;;9.63;58.35;102043.09;5015313;28;45430;-44
2023/04/16 01:12:05;;;;;;;;;10.00;7.25;;;;;9.63;58.35;102054.56;5031511;28;45470;-41
2023/04/16 01:14:35;;;;;;;;;12.50;10.25;;;;;9.61;57.89;102066.28;5016382;28;45570;-45
2023/04/16 01:17:00;;;;;;;;;8.50;8.50;;;;;9.59;58.50;102054.88;5015993;28;47206;-40
2023/04/16 01:19:26;;;;;;;;;18.00;9.50;;;;;9.57;58.33;102055.00;5016029;28;45401;-43
2023/04/16 01:21:51;;;;;;;;;10.00;9.00;;;;;9.55;58.35;102054.25;5016462;28;45370;-42
2023/04/16 01:24:29;;;;;;;;;9.00;7.75;;;;;9.54;58.95;102059.69;5016705;28;45199;-42
2023/04/16 01:27:08;;;;;;;;;9.25;8.50;;;;;9.52;58.46;102061.56;5016036;28;45987;-42
2023/04/16 01:29:36;;;;;;;;;8.25;7.00;;;;;9.49;59.24;102050.22;5016120;28;45537;-41
2023/04/16 01:32:01;;;;;;;;;6.50;6.50;;;;;9.49;59.14;102055.53;5016856;28;45299;-42
2023/04/16 01:34:27;;;;;;;;;9.00;9.00;;;;;9.41;58.62;102041.94;5015645;28;45394;-41
2023/04/16 01:36:52;;;;;;;;;13.50;7.75;;;;;9.44;59.39;102055.03;5015835;28;46080;-45
2023/04/16 01:39:18;;;;;;;;;11.00;7.00;;;;;9.42;59.40;102048.94;5015867;28;45473;-45
2023/04/16 01:41:44;;;;;;;;;10.00;9.50;;;;;9.42;58.84;102054.25;5016266;28;45379;-42
2023/04/16 01:44:09;;;;;;;;;8.50;6.50;;;;;9.36;59.10;102048.53;5015397;28;45488;-42
2023/04/16 01:46:36;;;;;;;;;9.75;6.50;;;;;9.39;59.06;102057.13;5015659;28;45982;-43
2023/04/16 01:49:03;;;;;;;;;13.75;9.75;;;;;9.37;59.29;102061.72;5016002;28;45459;-47
2023/04/16 01:51:28;;;;;;;;;14.00;9.50;;;;;9.35;58.96;102057.44;5016182;28;45280;-43
2023/04/16 01:53:54;;;;;;;;;7.00;7.00;;;;;9.34;58.88;102061.06;5015825;28;45402;-46
2023/04/16 01:56:19;;;;;;;;;10.50;9.00;;;;;9.33;59.64;102062.88;5015535;28;45707;-42
2023/04/16 01:58:46;;;;;;;;;10.00;6.50;;;;;9.31;58.99;102066.56;5015541;28;45371;-40
2023/04/16 02:01:12;;;;;;;;;12.75;9.75;;;;;9.30;59.39;102064.88;5015837;28;45382;-43
2023/04/16 02:03:38;;;;;;;;;12.75;7.50;;;;;9.28;59.91;102065.00;5015700;28;45379;-43
2023/04/16 02:06:04;;;;;;;;;8.00;7.00;;;;;9.27;60.13;102071.28;5015313;28;47129;-43
2023/04/16 02:08:29;;;;;;;;;9.75;8.00;;;;;9.25;60.11;102066.06;5015600;28;45465;-41
2023/04/16 02:10:55;;;;;;;;;13.75;9.00;;;;;9.24;59.78;102067.00;5015631;28;45340;-41
2023/04/16 02:13:22;;;;;;;;;9.25;8.50;;;;;9.22;59.95;102060.94;5016011;28;45547;-41
2023/04/16 02:15:49;;;;;;;;;14.25;8.00;;;;;9.21;59.65;102071.69;5016327;28;45380;-42
2023/04/16 02:18:14;;;;;;;;;10.25;7.25;;;;;9.19;60.20;102069.16;5015936;28;45350;-42
2023/04/16 02:20:43;;;;;;;;;9.00;7.00;;;;;9.17;59.95;102075.50;5016133;28;45269;-43
2023/04/16 02:23:09;;;;;;;;;9.00;9.00;;;;;9.17;60.14;102081.66;5016207;28;45407;-41
2023/04/16 02:25:45;;;;;;;;;8.50;6.00;;;;;9.15;60.50;102075.63;5014890;28;45383;-43
2023/04/16 02:28:13;;;;;;;;;9.00;6.00;;;;;9.15;60.13;102077.44;5015469;28;45410;-40
2023/04/16 02:30:39;;;;;;;;;3.00;3.00;;;;;9.14;60.25;102071.28;5015166;28;45351;-43
2023/04/16 02:33:07;;;;;;;;;9.75;9.75;;;;;9.12;60.83;102075.81;5015549;28;45331;-45
2023/04/16 02:35:33;;;;;;;;;8.00;6.00;;;;;9.12;60.48;102074.97;5015043;28;46503;-46
2023/04/16 02:37:58;;;;;;;;;6.25;6.00;;;;;9.12;60.29;102081.13;5014476;28;45319;-41
2023/04/16 02:40:25;;;;;;;;;61.50;45.25;;;;;9.10;60.29;102085.72;5015302;28;45437;-44
2023/04/16 02:42:50;;;;;;;;;15.50;15.00;;;;;9.10;60.33;102076.88;5015326;28;45294;-42
2023/04/16 02:45:16;;;;;;;;;14.75;10.25;;;;;9.09;60.37;102080.47;5015644;28;45470;-42
2023/04/16 02:47:41;;;;;;;;;12.00;8.50;;;;;9.06;61.07;102070.94;5018525;28;45421;-39
2023/04/16 02:50:07;;;;;;;;;15.50;11.25;;;;;9.04;60.89;102070.19;5018722;28;45416;-44
2023/04/16 02:52:32;;;;;;;;;14.00;11.50;;;;;9.03;60.87;102072.94;5018785;28;45315;-41
2023/04/16 02:54:58;;;;;;;;;9.25;7.75;;;;;9.00;60.89;102077.50;5018263;28;47175;-44
2023/04/16 02:57:24;;;;;;;;;15.75;11.25;;;;;8.96;60.98;102072.50;5018255;28;45508;-44
2023/04/16 02:59:49;;;;;;;;;15.25;13.75;;;;;8.95;61.73;102078.78;5018167;28;45295;-41
2023/04/16 03:02:15;;;;;;;;;12.50;10.00;;;;;8.93;61.27;102081.53;5018854;28;45420;-43
2023/04/16 03:04:41;;;;;;;;;16.50;9.25;;;;;8.90;61.36;102079.09;5018116;28;45251;-48
2023/04/16 03:07:07;;;;;;;;;12.00;9.00;;;;;8.90;61.60;102081.75;5017998;28;45454;-41
2023/04/16 03:09:33;;;;;;;;;10.25;9.75;;;;;8.88;61.23;102085.44;5018476;28;45227;-40
2023/04/16 03:11:58;;;;;;;;;11.75;9.00;;;;;8.87;61.26;102084.59;5018410;28;45352;-42
2023/04/16 03:14:24;;;;;;;;;13.25;6.75;;;;;8.86;61.83;102079.41;5018046;28;45930;-49
2023/04/16 03:16:49;;;;;;;;;12.75;12.50;;;;;8.85;62.31;102082.97;5018116;28;45449;-43
2023/04/16 03:19:15;;;;;;;;;15.50;8.00;;;;;8.83;61.82;102084.91;5018184;28;45414;-54
2023/04/16 03:21:40;;;;;;;;;11.75;10.25;;;;;8.83;62.44;102088.41;5018301;28;45482;-54
2023/04/16 03:24:05;;;;;;;;;18.75;10.75;;;;;8.82;62.05;102088.50;5018100;28;47218;-45
2023/04/16 03:26:31;;;;;;;;;13.00;11.00;;;;;8.82;62.12;102093.81;5016601;28;45324;-57
2023/04/16 03:28:56;;;;;;;;;22.00;13.75;;;;;8.80;61.87;102093.91;5016661;28;45372;-49
2023/04/16 03:31:23;;;;;;;;;18.50;11.50;;;;;8.79;62.74;102086.91;5017847;28;45529;-49
2023/04/16 03:33:48;;;;;;;;;13.50;11.75;;;;;8.79;62.11;102088.72;5017981;28;45420;-51
2023/04/16 03:36:14;;;;;;;;;13.75;10.75;;;;;8.73;62.72;102077.56;5017851;28;46651;-41
2023/04/16 03:38:39;;;;;;;;;8.75;8.25;;;;;8.75;62.25;102086.25;5016676;28;45280;-53
2023/04/16 03:41:04;;;;;;;;;18.75;11.00;;;;;8.75;62.32;102083.59;5018254;28;45338;-43
2023/04/16 03:43:29;;;;;;;;;12.50;9.75;;;;;8.74;62.49;102084.56;5017508;28;45466;-43
2023/04/16 03:45:55;;;;;;;;;18.25;10.75;;;;;8.73;63.04;102082.00;5017729;28;45287;-46
2023/04/16 03:48:20;;;;;;;;;12.00;10.50;;;;;8.72;63.12;102080.28;5017943;28;45301;-55
2023/04/16 03:50:48;;;;;;;;;10.25;10.25;;;;;8.71;62.66;102084.75;5016585;28;45549;-46
2023/04/16 03:53:14;;;;;;;;;13.25;12.00;;;;;8.70;62.42;102084.88;5017786;28;47200;-51
2023/04/16 03:55:40;;;;;;;;;13.25;10.00;;;;;8.67;63.07;102090.38;5017289;28;45322;-48
2023/04/16 03:58:06;;;;;;;;;12.75;12.00;;;;;8.65;63.63;102093.13;5017228;28;45407;-43
2023/04/16 04:00:31;;;;;;;;;13.50;12.25;;;;;8.60;63.35;102079.31;5017667;28;45389;-57
2023/04/16 04:02:56;;;;;;;;;12.50;9.00;;;;;8.63;62.74;102088.88;5017491;28;46185;-46
2023/04/16 04:05:22;;;;;;;;;10.75;9.25;;;;;8.63;62.61;102091.53;5015615;28;45403;-49
2023/04/16 04:07:48;;;;;;;;;13.00;10.25;;;;;8.61;63.09;102091.63;5017542;28;45408;-49
2023/04/16 04:10:14;;;;;;;;;13.75;10.00;;;;;8.60;63.99;102103.19;5017721;28;45473;-45
2023/04/16 04:12:40;;;;;;;;;27.25;15.75;;;;;8.58;64.50;102105.09;5017136;28;45451;-56
2023/04/16 04:15:05;;;;;;;;;16.00;11.25;;;;;8.56;64.20;102098.19;5016903;28;45233;-48
2023/04/16 04:17:31;;;;;;;;;16.00;12.25;;;;;8.55;64.38;102110.59;5017222;28;45409;-50
2023/04/16 04:19:56;;;;;;;;;14.25;11.75;;;;;8.52;63.87;102105.50;5032284;28;45138;-56
2023/04/16 04:22:22;;;;;;;;;15.00;14.50;;;;;8.49;65.32;102109.19;5016786;28;46660;-58
2023/04/16 04:24:47;;;;;;;;;20.50;18.00;;;;;8.47;65.29;102107.59;5017275;28;45362;-50
2023/04/16 04:27:12;;;;;;;;;17.25;14.00;;;;;8.41;64.96;102108.00;5017030;28;45313;-56
2023/04/16 04:29:37;;;;;;;;;20.50;15.00;;;;;8.38;66.16;102116.13;5017087;28;45313;-44
2023/04/16 04:32:03;;;;;;;;;22.50;21.00;;;;;8.35;66.19;102118.97;5016897;28;46176;-57
2023/04/16 04:34:28;;;;;;;;;25.75;21.00;;;;;8.30;67.07;102116.63;5016625;28;45204;-54
2023/04/16 04:36:54;;;;;;;;;20.75;13.50;;;;;8.27;67.08;102114.16;5017066;28;45425;-55
2023/04/16 04:39:20;;;;;;;;;25.50;21.00;;;;;8.25;66.65;102110.72;5016982;28;45394;-54
2023/04/16 04:41:46;;;;;;;;;25.00;16.00;;;;;8.16;67.28;102098.06;5016874;28;45633;-55
2023/04/16 04:44:12;;;;;;;;;26.50;20.00;;;;;8.20;66.55;102110.19;5016777;28;45373;-42
2023/04/16 04:46:39;;;;;;;;;32.75;22.75;;;;;8.10;67.62;102106.44;5016641;28;45477;-55
2023/04/16 04:49:05;;;;;;;;;21.50;20.25;;;;;8.12;67.50;102115.13;5017081;28;45394;-57
2023/04/16 04:51:31;;;;;;;;;23.50;22.00;;;;;8.10;66.89;102120.53;5016386;28;47255;-45
2023/04/16 04:53:56;;;;;;;;;28.50;17.25;;;;;8.08;67.06;102125.06;5016642;28;45527;-44
2023/04/16 04:56:24;;;;;;;;;24.50;17.25;;;;;8.09;67.77;102124.13;5015263;28;45297;-54
2023/04/16 04:58:50;;;;;;;;;24.75;20.50;;;;;8.08;68.06;102132.16;5016830;28;45402;-47
2023/04/16 05:01:18;;;;;;;;;23.75;19.50;;;;;8.07;67.52;102123.38;5016376;28;46180;-44
2023/04/16 05:03:46;;;;;;;;;36.50;19.75;;;;;8.05;67.61;102127.94;5016367;28;45796;-45
2023/04/16 05:06:20;;;;;;;;;26.50;23.50;;;;;8.05;67.20;102138.53;5016423;28;45310;-45
2023/04/16 05:08:45;;;;;;;;;31.00;22.75;;;;;8.02;67.55;102132.56;5015902;28;45353;-46
2023/04/16 05:11:11;;;;;;;;;30.25;22.25;;;;;8.02;68.28;102136.06;5015797;28;47001;-41
2023/04/16 05:13:36;;;;;;;;;30.00;27.25;;;;;7.99;67.56;102138.88;5016265;28;45472;-44
2023/04/16 05:16:02;;;;;;;;;33.50;24.50;;;;;8.02;67.61;102148.47;5015997;28;45435;-47
2023/04/16 05:18:27;;;;;;;;;35.25;26.50;;;;;8.02;67.86;102148.47;5016335;28;45261;-56
2023/04/16 05:20:52;;;;;;;;;26.00;22.50;;;;;8.02;67.82;102144.00;5016129;28;45337;-53
2023/04/16 05:23:17;;;;;;;;;28.00;24.00;;;;;8.06;68.25;102145.53;5016256;28;45585;-41
2023/04/16 05:25:43;;;;;;;;;38.50;24.50;;;;;8.07;68.49;102141.91;5016117;28;45286;-39
2023/04/16 05:28:09;;;;;;;;;26.25;17.75;;;;;8.09;67.36;102144.47;5016464;28;45493;-49
2023/04/16 05:30:34;;;;;;;;;32.25;26.00;;;;;8.10;68.28;102143.53;5015335;28;45391;-41
2023/04/16 05:32:59;;;;;;;;;34.00;22.50;;;;;8.13;68.44;102154.81;5016207;28;45579;-44
2023/04/16 05:35:25;;;;;;;;;25.00;24.00;;;;;8.18;68.02;102152.72;5016008;28;45407;-41
2023/04/16 05:37:50;;;;;;;;;34.00;23.25;;;;;8.23;67.81;102153.25;5016350;28;45381;-44
2023/04/16 05:40:16;;;;;;;;;33.25;29.00;;;;;8.31;68.35;102158.09;5015953;28;47359;-44
2023/04/16 05:42:41;;;;;;;;;32.75;25.50;;;;;8.34;67.90;102155.22;5015858;28;45248;-46
2023/04/16 05:45:07;;;;;;;;;40.00;27.75;;;;;8.39;68.09;102161.13;5016070;28;45310;-40
2023/04/16 05:47:32;;;;;;;;;38.00;26.25;;;;;8.43;68.70;102159.13;5015811;28;45321;-42
2023/04/16 05:49:58;;;;;;;;;37.25;26.00;;;;;8.50;67.75;102168.38;5015566;28;46594;-45
2023/04/16 05:52:23;;;;;;;;;32.00;28.25;;;;;8.55;67.92;102166.28;5015602;28;45331;-58
2023/04/16 05:54:48;;;;;;;;;40.75;33.00;;;;;8.63;68.07;102171.94;5015255;28;45318;-43
2023/04/16 05:57:14;;;;;;;;;39.25;29.50;;;;;8.69;67.22;102166.25;5015916;28;45461;-43
2023/04/16 05:59:39;;;;;;;;;33.00;26.50;;;;;8.73;67.35;102166.91;5015588;28;45866;-46
2023/04/16 06:02:05;;;;;;;;;33.50;29.50;;;;;8.73;66.69;102175.72;5015470;28;48935;-45
2023/04/16 06:04:31;;;;;;;;;34.75;30.00;;;;;8.80;67.34;102172.66;5015487;28;45745;-52
2023/04/16 06:06:56;;;;;;;;;38.50;34.00;;;;;8.87;67.85;102171.31;5015668;28;45245;-42
2023/04/16 06:09:21;;;;;;;;;38.75;30.50;;;;;8.98;66.88;102177.63;5015651;28;45276;-50
2023/04/16 06:11:47;;;;;;;;;33.75;28.25;;;;;9.03;66.42;102172.00;5015565;28;45294;-51
2023/04/16 06:14:19;;;;;;;;;37.00;33.00;;;;;9.10;66.50;102178.63;5015909;28;45407;-52
2023/04/16 06:16:44;;;;;;;;;41.50;29.25;;;;;9.23;66.86;102178.66;5015546;28;45371;-50
2023/04/16 06:19:09;;;;;;;;;38.50;33.00;;;;;9.28;66.24;102181.00;5015258;28;47387;-56
2023/04/16 06:21:36;;;;;;;;;39.75;33.25;;;;;9.36;66.29;102174.22;5018015;28;48020;-53
2023/04/16 06:24:02;;;;;;;;;39.00;32.25;;;;;9.39;66.71;102176.63;5018984;28;45229;-53
2023/04/16 06:26:27;;;;;;;;;39.75;31.00;;;;;9.48;65.91;102183.13;5019313;28;45455;-48
2023/04/16 06:28:52;;;;;;;;;44.75;32.25;;;;;9.53;65.71;102183.69;5018948;28;45935;-53
2023/04/16 06:31:17;;;;;;;;;50.00;34.25;;;;;9.55;65.66;102173.78;5018870;28;45477;-49
2023/04/16 06:33:43;;;;;;;;;42.50;31.75;;;;;9.54;65.52;102169.44;5019075;28;45285;-55
2023/04/16 06:36:08;;;;;;;;;44.50;29.75;;;;;9.61;65.36;102181.34;5019193;28;45397;-46
2023/04/16 06:38:35;;;;;;;;;41.25;32.75;;;;;9.59;65.23;102180.59;5018035;28;46335;-51
2023/04/16 06:41:00;;;;;;;;;37.75;29.75;;;;;9.70;65.23;102180.72;5018741;28;45417;-44
2023/04/16 06:43:25;;;;;;;;;50.50;37.50;;;;;9.77;64.68;102183.78;5018541;28;45397;-45
2023/04/16 06:45:51;;;;;;;;;42.75;26.00;;;;;9.86;64.94;102184.94;5018837;28;45332;-45
2023/04/16 06:48:16;;;;;;;;;37.25;29.50;;;;;9.93;64.61;102186.25;5018663;28;46264;-47
2023/04/16 06:50:42;;;;;;;;;34.00;28.50;;;;;10.07;64.99;102186.13;5018507;28;45386;-42
2023/04/16 06:53:07;;;;;;;;;39.25;29.00;;;;;10.30;64.23;102184.53;5018701;28;45940;-45
2023/04/16 06:55:32;;;;;;;;;38.25;35.75;;;;;10.58;63.85;102183.41;5018610;28;45717;-45
2023/04/16 06:57:58;;;;;;;;;42.25;34.25;;;;;10.84;63.28;102189.47;5018325;28;46833;-48
2023/04/16 07:00:23;;;;;;;;;45.50;30.50;;;;;11.08;62.15;102185.94;5018547;28;45806;-46
2023/04/16 07:02:48;;;;;;;;;42.00;27.75;;;;;11.29;62.08;102189.63;5018383;28;45481;-42
2023/04/16 07:05:14;;;;;;;;;42.00;28.00;;;;;11.51;61.93;102188.88;5018450;28;45357;-43
2023/04/16 07:07:39;;;;;;;;;41.25;31.25;;;;;11.87;60.58;102195.03;5018172;28;45979;-50
2023/04/16 07:10:05;;;;;;;;;28.75;23.25;;;;;12.58;59.27;102184.94;5018649;28;45388;-51
2023/04/16 07:12:31;;;;;;;;;41.25;34.00;;;;;13.79;56.54;102181.00;5018256;28;45193;-53
2023/04/16 07:14:57;;;;;;;;;51.25;37.75;;;;;14.78;53.73;102181.22;5018336;28;45624;-51
2023/04/16 07:17:22;;;;;;;;;48.75;39.75;;;;;15.33;52.13;102174.31;5017561;28;45399;-53
2023/04/16 07:19:48;;;;;;;;;45.25;33.00;;;;;15.80;50.48;102176.22;5018165;28;45447;-54
2023/04/16 07:22:13;;;;;;;;;35.67;30.33;;;;;16.33;49.05;102187.16;5018217;28;45832;-53
2023/04/16 07:24:38;;;;;;;;;39.67;30.67;;;;;16.68;47.46;102172.94;5018354;28;45312;-53
2023/04/16 07:27:04;;;;;;;;;30.33;29.33;;;;;17.00;47.08;102178.84;5017975;28;46181;-57
2023/04/16 07:29:29;;;;;;;;;26.67;24.00;;;;;17.61;45.33;102169.91;5017954;28;45443;-46
2023/04/16 07:31:55;;;;;;;;;34.67;26.67;;;;;18.33;43.90;102170.47;5017030;28;45403;-56
2023/04/16 07:34:20;;;;;;;;;26.00;22.00;;;;;18.97;42.78;102177.09;5017987;28;45679;-50
2023/04/16 07:36:45;;;;;;;;;26.00;24.00;;;;;19.38;42.13;102175.25;5017617;28;46110;-57
2023/04/16 07:39:12;;;;;;;;;30.00;26.33;;;;;19.68;40.09;102164.78;5017731;28;45420;-59
2023/04/16 07:41:39;;;;;;;;;35.67;23.00;;;;;19.96;39.59;102172.44;5017367;28;45841;-52
2023/04/16 07:44:04;;;;;;;;;24.67;22.00;;;;;20.28;39.48;102166.09;5017611;28;45409;-43
2023/04/16 07:46:30;;;;;;;;;31.00;24.67;;;;;20.49;38.63;102169.06;5017342;28;45376;-43
2023/04/16 07:48:55;;;;;;;;;28.33;21.33;;;;;20.74;38.37;102172.44;5017572;28;45403;-53
2023/04/16 07:51:22;;;;;;;;;25.67;24.33;;;;;20.83;38.66;102173.25;5017233;28;45379;-52
2023/04/16 07:53:48;;;;;;;;;31.00;25.33;;;;;20.97;37.97;102175.16;5017965;28;45443;-50
2023/04/16 07:56:13;;;;;;;;;31.67;23.00;;;;;21.21;37.08;102166.00;5017225;28;45990;-52
2023/04/16 07:58:38;;;;;;;;;24.00;20.33;;;;;21.30;37.06;102177.59;5017445;28;45324;-43
2023/04/16 08:01:04;;;;;;;;;25.33;24.67;;;;;21.12;37.06;102175.22;5017573;28;45235;-48
2023/04/16 08:03:29;;;;;;;;;23.00;20.33;;;;;20.73;37.83;102187.00;5016535;28;45367;-43
2023/04/16 08:05:55;;;;;;;;;27.67;25.00;;;;;20.49;37.60;102177.16;5016280;28;47192;-49
2023/04/16 08:08:20;;;;;;;;;23.67;22.33;;;;;20.62;38.46;102184.69;5016914;28;45644;-37
2023/04/16 08:10:46;;;;;;;;;22.67;19.00;;;;;20.60;37.75;102184.84;5017116;28;45334;-41
2023/04/16 08:13:11;;;;;;;;;27.33;23.67;;;;;20.53;38.32;102183.91;5016720;28;45423;-49
2023/04/16 08:15:37;;;;;;;;;26.00;22.67;;;;;20.57;38.21;102193.34;5016542;28;46146;-50
2023/04/16 08:18:04;;;;;;;;;24.33;21.67;;;;;20.71;37.92;102196.28;5016221;28;45441;-48
2023/04/16 08:20:30;;;;;;;;;20.67;20.00;;;;;20.89;37.91;102189.56;5016999;28;45391;-48
2023/04/16 08:22:55;;;;;;;;;25.67;22.00;;;;;21.26;37.03;102179.00;5017112;28;45418;-52
2023/04/16 08:25:23;;;;;;;;;22.67;19.33;;;;;21.72;36.50;102189.75;5016393;28;46026;-51
2023/04/16 08:27:48;;;;;;;;;23.67;21.33;;;;;22.14;35.60;102181.00;5015657;28;45743;-52
2023/04/16 08:30:15;;;;;;;;;29.00;24.00;;;;;22.62;35.02;102186.81;5016605;28;45272;-44
2023/04/16 08:32:41;;;;;;;;;20.33;20.00;;;;;22.99;34.49;102185.78;5016481;28;45378;-41
2023/04/16 08:35:07;;;;;;;;;29.33;23.33;;;;;23.23;33.43;102187.25;5016529;28;46020;-41
2023/04/16 08:37:33;;;;;;;;;30.00;26.00;;;;;23.57;33.44;102186.50;5016171;28;45385;-44
2023/04/16 08:39:58;;;;;;;;;25.25;23.50;;;;;24.11;31.89;102188.53;5016684;28;45451;-39
2023/04/16 08:42:32;;;;;;;;;25.50;23.25;;;;;25.10;31.84;102182.59;5016384;28;45394;-51
2023/04/16 08:45:14;;;;;;;;;30.25;24.00;;;;;26.59;30.12;102186.53;5015913;28;45482;-39
2023/04/16 08:47:40;;;;;;;;;25.50;24.00;;;;;28.33;27.16;102182.06;5015353;28;45309;-42
2023/04/16 08:50:10;;;;;;;;;21.75;21.25;;;;;29.70;25.23;102189.47;5016738;28;45494;-49
2023/04/16 08:52:41;;;;;;;;;29.75;20.00;;;;;30.32;23.96;102181.50;5016571;28;45500;-43
2023/04/16 08:55:15;;;;;;;;;25.25;21.00;;;;;30.92;24.38;102191.97;5016134;28;45357;-43
2023/04/16 08:57:49;;;;;;;;;23.60;21.00;;;;;31.27;23.16;102188.19;5015938;28;45849;-41
2023/04/16 09:00:15;;;;;;;;;32.60;20.40;;;;;31.72;22.93;102200.97;5016560;28;45354;-40
2023/04/16 09:02:41;;;;;;;;;21.60;18.80;;;;;32.08;22.12;102196.00;5016239;28;45306;-38
2023/04/16 09:05:08;;;;;;;;;26.75;16.50;;;;;32.74;21.18;102192.09;5015972;28;45544;-42
2023/04/16 09:07:34;;;;;;;;;17.00;16.80;;;;;33.60;20.44;102184.84;5015745;28;45505;-39
2023/04/16 09:10:00;;;;;;;;;18.00;14.50;;;;;34.70;19.29;102188.34;5016075;28;45431;-44
2023/04/16 09:12:26;;;;;;;;;18.40;16.00;;;;;35.93;17.74;102188.22;5016426;28;45468;-43
2023/04/16 09:14:52;;;;;;;;;20.00;18.50;;;;;36.84;18.68;102192.47;5013836;28;46706;-40
2023/04/16 09:17:18;;;;;;;;;16.25;13.00;;;;;36.92;16.35;102186.34;5015575;28;45324;-44
2023/04/16 09:19:44;;;;;;;;;15.00;14.40;;;;;36.98;16.37;102189.88;5015630;28;45406;-40
2023/04/16 09:22:10;;;;;;;;;17.60;14.80;;;;;37.51;15.82;102187.19;5015342;28;45384;-39
2023/04/16 09:24:37;;;;;;;;;19.80;14.80;;;;;38.09;15.64;102186.25;5015478;28;46405;-46
2023/04/16 09:27:03;;;;;;;;;22.80;15.40;;;;;38.70;15.47;102188.16;5015102;28;45346;-38
2023/04/16 09:29:40;;;;;;;;;15.25;15.25;;;;;38.98;15.61;102180.78;5014973;28;45529;-44
2023/04/16 09:32:10;;;;;;;;;16.20;15.40;;;;;39.17;14.45;102183.50;5015688;28;45353;-40
2023/04/16 09:35:01;;;;;;;;;12.40;10.60;;;;;39.39;14.57;102193.97;5015387;28;45368;-48
2023/04/16 09:37:30;;;;;;;;;15.20;13.00;;;;;39.45;14.49;102187.19;5015670;28;45292;-40
2023/04/16 09:39:58;;;;;;;;;13.40;11.00;;;;;39.57;15.03;102195.88;5015867;28;45525;-40
2023/04/16 09:42:31;;;;;;;;;11.20;10.60;;;;;39.04;14.32;102189.84;5015656;28;45601;-40
2023/04/16 09:44:58;;;;;;;;;13.20;12.40;;;;;39.54;14.05;102190.91;5015561;28;46853;-44
2023/04/16 09:47:39;;;;;;;;;12.20;11.00;;;;;39.91;15.01;102181.53;5014081;28;45461;-44
2023/04/16 09:50:04;;;;;;;;;16.80;11.60;;;;;40.40;13.54;102198.59;5015451;28;45482;-39
2023/04/16 09:52:30;;;;;;;;;15.50;12.50;;;;;40.70;12.87;102188.69;5014114;28;45606;-43
2023/04/16 09:54:55;;;;;;;;;14.25;11.75;;;;;40.51;13.55;102194.44;5014518;28;46599;-39
2023/04/16 09:57:23;;;;;;;;;13.25;12.00;;;;;41.02;13.73;102182.06;5015263;28;45733;-42
2023/04/16 10:00:01;;;;;;;;;14.80;12.40;;;;;41.43;13.38;102191.34;5015540;28;45320;-45
2023/04/16 10:02:27;;;;;;;;;18.80;14.80;;;;;41.79;12.99;102189.16;5015573;28;45343;-43
2023/04/16 10:04:53;;;;;;;;;16.00;13.80;;;;;41.64;12.20;102189.63;5014694;28;46173;-44
2023/04/16 10:07:20;;;;;;;;;10.75;10.25;;;;;41.32;13.25;102194.38;5015335;28;45363;-49
2023/04/16 10:09:49;;;;;;;;;12.00;12.00;;;;;41.33;13.10;102192.41;5015475;28;45743;-45
2023/04/16 10:12:15;;;;;;;;;10.80;10.80;;;;;41.54;13.07;102196.31;5015643;28;45291;-48
2023/04/16 10:14:41;;;;;;;;;11.00;9.20;;;;;41.65;12.65;102196.03;5015160;28;45475;-47
2023/04/16 10:17:10;;;;;;;;;16.00;11.00;;;;;41.98;13.33;102197.31;5015081;28;45359;-41
2023/04/16 10:19:35;;;;;;;;;11.40;10.40;;;;;42.38;12.71;102193.59;5015047;28;45393;-46
2023/04/16 10:22:02;;;;;;;;;10.00;9.00;;;;;41.63;12.53;102204.72;5015689;28;45458;-53
2023/04/16 10:24:29;;;;;;;;;13.20;10.20;;;;;40.72;13.07;102197.59;5015024;28;45398;-47
2023/04/16 10:26:55;;;;;;;;;14.20;11.00;;;;;40.23;12.65;102190.06;5015034;28;45381;-52
2023/04/16 10:29:22;;;;;;;;;12.00;12.00;;;;;39.71;13.49;102193.09;5014887;28;45330;-44
2023/04/16 10:31:49;;;;;;;;;57.60;41.00;;;;;39.48;13.65;102194.09;5015355;28;45434;-38
2023/04/16 10:34:15;;;;;;;;;57.80;41.80;;;;;39.81;13.32;102186.50;5014651;28;45359;-44
2023/04/16 10:36:40;;;;;;;;;52.60;35.60;;;;;39.84;13.54;102191.44;5014880;28;45358;-47
2023/04/16 10:39:13;;;;;;;;;58.00;42.00;;;;;39.78;14.09;102187.97;5015045;28;45439;-54
2023/04/16 10:41:38;;;;;;;;;20.20;13.80;;;;;39.52;13.77;102186.75;5013875;28;45167;-44
2023/04/16 10:44:08;;;;;;;;;39.75;30.25;;;;;39.04;14.10;102195.44;5014948;28;45331;-56
2023/04/16 10:46:37;;;;;;;;;12.00;10.20;;;;;37.88;15.20;102194.88;5015043;28;45417;-53
2023/04/16 10:49:15;;;;;;;;;36.60;26.60;;;;;37.50;14.44;102195.81;5013515;28;45547;-56
2023/04/16 10:51:41;;;;;;;;;14.40;12.60;;;;;37.32;14.80;102192.63;5015147;28;45734;-56
2023/04/16 10:54:13;;;;;;;;;7.00;7.00;;;;;37.18;14.99;102205.53;5014892;28;45442;-37
2023/04/16 10:56:39;;;;;;;;;8.00;6.80;;;;;36.68;15.23;102196.47;5014658;28;45469;-58
2023/04/16 10:59:06;;;;;;;;;11.00;8.25;;;;;36.52;15.38;102189.38;5014700;28;45418;-58
2023/04/16 11:01:33;;;;;;;;;11.40;9.00;;;;;36.33;15.75;102203.06;5015231;28;45508;-49
2023/04/16 11:04:01;;;;;;;;;5.20;5.20;;;;;35.98;14.79;102196.53;5014235;28;45964;-53
2023/04/16 11:06:27;;;;;;;;;6.00;6.00;;;;;35.89;15.83;102187.97;5013419;28;45387;-42
2023/04/16 11:08:53;;;;;;;;;16.00;13.60;;;;;35.98;15.61;102183.53;5017479;28;45402;-56
2023/04/16 11:11:19;;;;;;;;;22.50;14.25;;;;;36.01;15.73;102186.84;5018608;28;45706;-50
2023/04/16 11:13:45;;;;;;;;;17.50;15.50;;;;;36.07;15.87;102188.47;5018081;28;45208;-54